Time;durP1;ratioP1;P1;durP2;ratioP2;P2;SDS_P1;SDS_P2;PMS_P1;PMS_P2;Temp;Humidity;BMP_temperature;BMP_pressure;BME280_temperature;BME280_humidity;BME280_pressure;Samples;Min_cycle;Max_cycle;Signal;HPM_P1;HPM_P2
2022/08/26 00:02:25;;;;;;;24.12;9.83;;;;;;;22.20;98.07;100513.27;3501956;83;31900;-89
2022/08/26 00:07:26;;;;;;;24.00;10.75;;;;;;;22.17;98.56;100512.78;3491754;83;99124;-89
2022/08/26 00:12:27;;;;;;;22.30;12.60;;;;;;;22.15;99.33;100497.81;3515219;83;31692;-90
2022/08/26 00:17:28;;;;;;;24.85;11.40;;;;;;;22.15;100.00;100502.63;3507483;82;98983;-90
2022/08/26 00:22:29;;;;;;;27.62;11.83;;;;;;;22.14;99.75;100504.66;3513310;82;30951;-88
2022/08/26 00:27:32;;;;;;;25.82;11.30;;;;;;;22.10;100.00;100498.38;3504295;82;98923;-90
2022/08/26 00:32:34;;;;;;;22.05;10.32;;;;;;;22.08;100.00;100486.83;3513354;83;34887;-89
2022/08/26 00:37:35;;;;;;;23.70;10.60;;;;;;;22.09;100.00;100493.22;3512179;82;99000;-89
2022/08/26 00:42:36;;;;;;;24.25;10.28;;;;;;;22.11;99.72;100488.73;3543894;81;32821;-90
2022/08/26 00:47:45;;;;;;;25.08;12.73;;;;;;;22.14;99.72;100484.24;3537796;82;99074;-89
2022/08/26 00:52:47;;;;;;;25.12;12.15;;;;;;;22.10;100.00;100483.58;3540263;82;31705;-90
2022/08/26 00:57:50;;;;;;;26.75;12.15;;;;;;;22.01;100.00;100480.70;3509309;82;99019;-89
2022/08/26 01:02:51;;;;;;;23.98;10.88;;;;;;;21.99;100.00;100481.76;3555678;81;37690;-90
2022/08/26 01:07:52;;;;;;;21.95;9.93;;;;;;;21.96;100.00;100479.24;3512851;83;99283;-91
2022/08/26 01:13:04;;;;;;;20.05;10.45;;;;;;;21.97;100.00;100475.20;3540614;83;32260;-90
2022/08/26 01:18:07;;;;;;;24.35;11.43;;;;;;;21.98;100.00;100475.39;3522319;81;99133;-90
2022/08/26 01:23:10;;;;;;;22.70;11.63;;;;;;;21.98;100.00;100475.39;3539183;81;32970;-91
2022/08/26 01:28:16;;;;;;;20.85;11.73;;;;;;;21.98;100.00;100473.98;3523029;81;99217;-90
2022/08/26 01:33:22;;;;;;;24.67;11.75;;;;;;;21.98;100.00;100474.59;3534752;82;26549;-90
2022/08/26 01:38:23;;;;;;;22.85;10.68;;;;;;;21.92;100.00;100471.59;3513441;82;99459;-90
2022/08/26 01:43:27;;;;;;;31.02;15.03;;;;;;;21.89;100.00;100468.28;3537495;83;31682;-90
2022/08/26 01:48:32;;;;;;;30.37;14.95;;;;;;;21.85;100.00;100466.85;3531353;82;99431;-91
2022/08/26 01:53:33;;;;;;;25.30;13.40;;;;;;;21.80;100.00;100464.63;3498779;83;25878;-90
2022/08/26 01:58:42;;;;;;;29.77;13.93;;;;;;;21.77;100.00;100455.09;3519355;82;99165;-91
2022/08/26 02:04:34;;;;;;;22.05;12.75;;;;;;;21.77;100.00;100459.91;3522775;83;31579;-90
2022/08/26 02:09:40;;;;;;;24.75;14.70;;;;;;;21.75;100.00;100460.35;3530517;82;98952;-90
2022/08/26 02:14:48;;;;;;;22.58;13.08;;;;;;;21.75;100.00;100453.98;3528833;83;26512;-90
2022/08/26 02:19:49;;;;;;;23.35;12.45;;;;;;;21.73;100.00;100453.63;3514043;82;99034;-89
2022/08/26 02:25:17;;;;;;;22.22;14.55;;;;;;;21.69;100.00;100443.95;3528353;82;32328;-90
2022/08/26 02:30:22;;;;;;;21.75;13.65;;;;;;;21.68;100.00;100441.63;3529757;82;98816;-90
2022/08/26 02:35:23;;;;;;;17.90;12.13;;;;;;;21.65;100.00;100440.48;3507769;83;25884;-89
2022/08/26 02:40:29;;;;;;;16.02;12.25;;;;;;;21.62;100.00;100436.37;3506372;82;99010;-90
2022/08/26 02:45:31;;;;;;;16.82;12.63;;;;;;;21.62;100.00;100431.56;3515273;83;31746;-89
2022/08/26 02:50:33;;;;;;;18.80;13.30;;;;;;;21.59;100.00;100428.25;3464319;83;99163;-90
2022/08/26 02:55:35;;;;;;;19.62;15.10;;;;;;;21.56;100.00;100431.97;3505680;83;31648;-90
2022/08/26 03:00:38;;;;;;;18.57;12.85;;;;;;;21.53;100.00;100434.27;3502737;83;99175;-90
2022/08/26 03:05:40;;;;;;;26.93;14.87;;;;;;;21.40;100.00;100429.31;3512987;82;31755;-90
2022/08/26 03:10:41;;;;;;;21.90;15.63;;;;;;;21.35;100.00;100427.67;3507863;82;99266;-90
2022/08/26 03:15:42;;;;;;;27.77;17.42;;;;;;;21.34;100.00;100428.31;3507683;83;31640;-89
2022/08/26 03:20:44;;;;;;;25.57;18.35;;;;;;;21.31;100.00;100430.59;3502368;82;99079;-89
2022/08/26 03:25:50;;;;;;;26.37;16.97;;;;;;;21.27;100.00;100431.35;3504485;83;31754;-90
2022/08/26 03:30:52;;;;;;;27.90;19.40;;;;;;;21.20;100.00;100429.39;3429478;84;99142;-91
2022/08/26 03:35:54;;;;;;;21.68;16.23;;;;;;;21.13;100.00;100419.20;3493335;83;31721;-90
2022/08/26 03:40:55;;;;;;;23.80;18.48;;;;;;;21.12;100.00;100421.84;3479198;83;98924;-91
2022/08/26 03:45:56;;;;;;;24.02;17.48;;;;;;;21.12;100.00;100423.23;3480852;82;99076;-86
2022/08/26 03:50:57;;;;;;;20.97;16.95;;;;;;;21.11;100.00;100421.67;3487813;83;57087;-91
2022/08/26 03:55:58;;;;;;;21.35;15.75;;;;;;;21.06;100.00;100425.03;3479272;83;99120;-91
2022/08/26 04:01:00;;;;;;;19.82;15.28;;;;;;;21.13;100.00;100421.20;3488059;83;29865;-91
2022/08/26 04:06:01;;;;;;;24.10;17.95;;;;;;;21.19;100.00;100422.23;3481789;83;99309;-90
2022/08/26 04:11:02;;;;;;;17.65;13.50;;;;;;;21.25;100.00;100428.84;3486284;83;31615;-90
2022/08/26 04:16:04;;;;;;;25.97;19.87;;;;;;;21.23;100.00;100423.67;3479672;82;99308;-90
2022/08/26 04:21:05;;;;;;;23.83;17.20;;;;;;;21.27;100.00;100424.35;3489538;84;30452;-91
2022/08/26 04:26:06;;;;;;;19.82;14.78;;;;;;;21.27;100.00;100422.16;3479683;82;99232;-91
2022/08/26 04:31:11;;;;;;;22.32;16.73;;;;;;;21.29;100.00;100424.67;3485771;82;29782;-92
2022/08/26 04:36:12;;;;;;;22.30;15.78;;;;;;;21.28;100.00;100431.52;3479661;83;98940;-92
2022/08/26 04:41:13;;;;;;;22.90;17.07;;;;;;;21.25;100.00;100433.03;3487978;82;31926;-90
2022/08/26 04:46:18;;;;;;;24.18;19.62;;;;;;;21.27;100.00;100434.16;3481807;82;99430;-90
2022/08/26 04:51:26;;;;;;;21.67;16.60;;;;;;;21.26;100.00;100426.20;3490690;82;26391;-91
2022/08/26 04:56:26;;;;;;;24.30;18.10;;;;;;;21.26;100.00;100433.19;3481918;83;99136;-90
2022/08/26 05:01:28;;;;;;;27.80;16.40;;;;;;;21.27;100.00;100434.16;3479450;84;32406;-92
2022/08/26 05:06:29;;;;;;;24.32;16.48;;;;;;;21.30;100.00;100435.27;3476403;84;99183;-91
2022/08/26 05:11:31;;;;;;;22.52;16.57;;;;;;;21.27;100.00;100433.35;3485890;83;31680;-91
2022/08/26 05:16:32;;;;;;;24.20;17.80;;;;;;;21.31;100.00;100430.59;3489442;83;99242;-90
2022/08/26 05:21:33;;;;;;;24.75;19.32;;;;;;;21.30;100.00;100444.44;3485290;83;32229;-91
2022/08/26 05:26:34;;;;;;;25.52;19.17;;;;;;;21.32;100.00;100439.80;3481382;84;99462;-90
2022/08/26 05:31:36;;;;;;;22.75;15.95;;;;;;;21.27;100.00;100441.75;3485036;83;32377;-91
2022/08/26 05:36:37;;;;;;;24.67;17.73;;;;;;;21.30;100.00;100445.07;3465535;83;99026;-91
2022/08/26 05:41:41;;;;;;;24.52;18.27;;;;;;;21.34;100.00;100446.52;3457319;84;32335;-91
2022/08/26 05:46:43;;;;;;;25.50;19.80;;;;;;;21.44;100.00;100448.19;3465543;83;99353;-91
2022/08/26 05:51:45;;;;;;;22.80;18.55;;;;;;;21.56;100.00;100450.17;3445527;83;31680;-91
2022/08/26 05:56:46;;;;;;;23.25;17.05;;;;;;;21.61;100.00;100455.81;3494465;83;100137;-90
2022/08/26 06:01:47;;;;;;;21.23;17.42;;;;;;;21.62;100.00;100450.37;3478963;82;31623;-90
2022/08/26 06:06:48;;;;;;;25.10;17.42;;;;;;;21.58;100.00;100449.73;3482324;82;99162;-91
2022/08/26 06:11:49;;;;;;;27.07;18.10;;;;;;;21.64;100.00;100438.13;3458102;82;31702;-91
2022/08/26 06:16:51;;;;;;;23.85;17.10;;;;;;;21.78;100.00;100444.66;3443842;83;99220;-90
2022/08/26 06:21:53;;;;;;;21.10;14.33;;;;;;;21.79;100.00;100446.25;3462917;83;31628;-90
2022/08/26 06:27:00;;;;;;;23.60;16.25;;;;;;;21.78;100.00;100453.06;3461324;84;99362;-91
2022/08/26 06:32:02;;;;;;;22.73;15.43;;;;;;;21.91;100.00;100448.98;3495995;84;32274;-92
2022/08/26 06:37:04;;;;;;;21.15;15.45;;;;;;;22.06;100.00;100442.30;3488858;82;99383;-91
2022/08/26 06:42:06;;;;;;;20.35;14.90;;;;;;;22.18;100.00;100443.62;3502122;83;31709;-92
2022/08/26 06:47:07;;;;;;;20.32;13.53;;;;;;;22.27;100.00;100439.49;3495839;83;99430;-92
2022/08/26 06:52:09;;;;;;;18.87;14.07;;;;;;;22.37;100.00;100436.13;3470637;84;32360;-91
2022/08/26 06:57:11;;;;;;;19.90;13.08;;;;;;;22.46;100.00;100431.39;3479939;83;99429;-91
2022/08/26 07:02:12;;;;;;;15.75;11.30;;;;;;;22.58;100.00;100430.55;3489362;83;51668;-91
2022/08/26 07:07:14;;;;;;;16.57;11.68;;;;;;;22.63;100.00;100429.17;3462684;82;99414;-91
2022/08/26 07:12:15;;;;;;;18.32;12.58;;;;;;;22.74;100.00;100434.55;3490401;83;31705;-91
2022/08/26 07:17:17;;;;;;;20.43;12.80;;;;;;;22.76;100.00;100436.27;3481979;83;99395;-90
2022/08/26 07:22:18;;;;;;;15.35;11.25;;;;;;;22.85;100.00;100426.50;3496160;83;31665;-90
2022/08/26 07:27:19;;;;;;;22.22;12.23;;;;;;;22.92;99.76;100424.81;3485838;83;99362;-91
2022/08/26 07:32:20;;;;;;;14.85;11.08;;;;;;;23.03;99.28;100425.17;3500167;83;32422;-90
2022/08/26 07:37:21;;;;;;;19.40;11.60;;;;;;;23.17;98.94;100430.23;3454706;84;99397;-89
2022/08/26 07:42:23;;;;;;;16.40;10.82;;;;;;;23.29;98.40;100422.95;3447211;84;32248;-91
2022/08/26 07:47:24;;;;;;;14.53;10.98;;;;;;;23.44;97.71;100421.89;3442324;84;99123;-90
2022/08/26 07:52:29;;;;;;;16.73;11.25;;;;;;;23.63;97.34;100428.34;3447343;84;32312;-90
2022/08/26 07:57:30;;;;;;;20.77;12.45;;;;;;;23.79;96.26;100426.65;3440529;84;99254;-90
2022/08/26 08:02:31;;;;;;;14.30;10.48;;;;;;;23.94;94.99;100429.04;3449920;84;32388;-89
2022/08/26 08:07:32;;;;;;;15.03;10.10;;;;;;;24.08;94.38;100432.02;3446146;84;99217;-89
2022/08/26 08:12:33;;;;;;;14.47;9.78;;;;;;;24.24;93.89;100428.13;3448137;84;32448;-88
2022/08/26 08:17:34;;;;;;;17.40;11.25;;;;;;;24.41;93.68;100428.70;3443532;84;99028;-89
2022/08/26 08:22:36;;;;;;;18.32;9.93;;;;;;;24.65;93.24;100428.86;3437758;84;31662;-90
2022/08/26 08:27:40;;;;;;;14.15;10.48;;;;;;;24.93;93.07;100423.29;3489961;83;99228;-89
2022/08/26 08:32:42;;;;;;;14.83;9.20;;;;;;;25.34;93.34;100417.66;3500549;83;25914;-89
2022/08/26 08:37:44;;;;;;;15.13;9.58;;;;;;;25.83;91.73;100417.97;3490631;82;98712;-89
2022/08/26 08:43:02;;;;;;;13.32;8.93;;;;;;;26.61;91.34;100406.20;3492192;82;26508;-89
2022/08/26 08:48:15;;;;;;;21.10;10.18;;;;;;;27.41;89.72;100404.42;3482533;83;99346;-90
2022/08/26 08:53:30;;;;;;;17.45;8.98;;;;;;;28.40;87.80;100400.69;3485427;82;26046;-89
2022/08/26 08:59:13;;;;;;;15.35;7.67;;;;;;;29.16;84.31;100400.59;3486492;82;98710;-89
2022/08/26 09:04:45;;;;;;;12.85;7.47;;;;;;;30.13;80.42;100401.54;3473542;83;29569;-86
2022/08/26 09:09:56;;;;;;;11.93;7.17;;;;;;;31.07;75.63;100397.53;3486509;83;98794;-87
2022/08/26 09:15:05;;;;;;;12.18;7.70;;;;;;;31.96;73.78;100398.09;3495115;82;27195;-87
2022/08/26 09:20:12;;;;;;;12.65;6.65;;;;;;;32.52;66.71;100390.81;3482046;82;99068;-87
2022/08/26 09:25:14;;;;;;;10.18;6.25;;;;;;;33.13;66.22;100391.86;3488004;82;25864;-87
2022/08/26 09:30:26;;;;;;;15.30;6.00;;;;;;;34.01;65.12;100386.60;3489933;83;98857;-86
2022/08/26 09:35:42;;;;;;;11.00;5.87;;;;;;;34.82;62.40;100380.22;3493907;83;26481;-86
2022/08/26 09:40:58;;;;;;;11.50;5.83;;;;;;;35.54;58.79;100379.72;3480794;83;98911;-87
2022/08/26 09:46:22;;;;;;;12.05;5.15;;;;;;;35.90;54.21;100378.61;3469569;83;99048;-85
2022/08/26 09:51:28;;;;;;;10.48;5.47;;;;;;;36.16;50.81;100370.72;3485554;82;26251;-86
2022/08/26 09:56:37;;;;;;;10.48;5.65;;;;;;;36.28;49.82;100369.84;3478226;83;98946;-86
2022/08/26 10:01:41;;;;;;;11.95;5.10;;;;;;;36.82;46.70;100364.86;3463414;82;53591;-85
2022/08/26 10:07:01;;;;;;;10.23;5.20;;;;;;;37.15;47.73;100365.45;3481961;83;98894;-85
2022/08/26 10:12:16;;;;;;;10.03;5.53;;;;;;;37.45;47.05;100359.92;3462211;83;26404;-86
2022/08/26 10:17:40;;;;;;;14.13;5.80;;;;;;;37.99;46.05;100356.03;3472214;83;99136;-86
2022/08/26 10:23:07;;;;;;;9.60;5.75;;;;;;;38.41;45.27;100350.13;3484809;84;27883;-86
2022/08/26 10:28:32;;;;;;;10.72;5.00;;;;;;;38.88;43.20;100344.65;3473461;83;98786;-84
2022/08/26 10:33:33;;;;;;;12.13;5.50;;;;;;;38.43;42.34;100335.30;3484883;82;27114;-85
2022/08/26 10:38:38;;;;;;;11.68;5.05;;;;;;;38.12;39.38;100332.22;3448462;84;98893;-86
2022/08/26 10:43:53;;;;;;;15.58;5.17;;;;;;;38.00;40.10;100332.48;3471863;82;26542;-84
2022/08/26 10:49:14;;;;;;;11.35;4.53;;;;;;;38.38;39.73;100325.37;3471376;82;98917;-84
2022/08/26 10:54:27;;;;;;;14.20;4.95;;;;;;;38.18;37.75;100332.81;3488921;82;27216;-86
2022/08/26 10:59:48;;;;;;;9.03;4.00;;;;;;;38.32;38.33;100314.73;3500737;82;98684;-84
2022/08/26 11:05:04;;;;;;;8.33;3.80;;;;;;;38.39;37.35;100316.18;3501355;83;26734;-85
2022/08/26 11:10:20;;;;;;;11.50;4.55;;;;;;;38.55;37.88;100301.17;3499795;82;98608;-85
2022/08/26 11:15:29;;;;;;;10.58;4.45;;;;;;;38.66;37.10;100301.56;3512756;82;59344;-84
2022/08/26 11:20:38;;;;;;;9.80;4.22;;;;;;;38.19;36.56;100296.97;3507480;82;98636;-84
2022/08/26 11:26:09;;;;;;;14.53;4.85;;;;;;;38.36;35.46;100285.68;3514046;83;80546;-84
2022/08/26 11:31:30;;;;;;;10.00;5.08;;;;;;;38.66;34.67;100283.52;3515268;83;25852;-84
2022/08/26 11:36:49;;;;;;;11.83;4.62;;;;;;;38.61;34.84;100281.60;3488761;82;99083;-83
2022/08/26 11:41:54;;;;;;;9.00;4.28;;;;;;;38.64;34.45;100279.78;3479384;83;26822;-84
2022/08/26 11:47:00;;;;;;;10.58;4.60;;;;;;;38.12;33.26;100268.20;3475787;83;98523;-84
2022/08/26 11:52:21;;;;;;;13.22;5.10;;;;;;;38.07;33.39;100267.70;3480672;83;37379;-85
2022/08/26 11:57:22;;;;;;;10.65;5.00;;;;;;;38.13;33.99;100262.57;3477037;82;98836;-84
2022/08/26 12:02:23;;;;;;;14.10;5.00;;;;;;;37.95;33.76;100255.79;3483832;82;36598;-83
2022/08/26 12:07:28;;;;;;;12.90;5.25;;;;;;;37.77;33.66;100255.45;3477182;82;99341;-84
2022/08/26 12:12:33;;;;;;;16.37;4.65;;;;;;;37.61;33.57;100250.22;3481803;82;116109;-84
2022/08/26 12:17:34;;;;;;;10.78;4.83;;;;;;;37.79;34.55;100241.94;3480569;82;99060;-84
2022/08/26 12:22:37;;;;;;;12.18;5.28;;;;;;;37.43;33.23;100240.53;3482956;82;25899;-84
2022/08/26 12:27:42;;;;;;;12.73;5.30;;;;;;;37.28;33.60;100233.31;3471875;83;98770;-84
2022/08/26 12:32:51;;;;;;;11.30;4.37;;;;;;;37.13;34.22;100225.27;3471880;83;25919;-84
2022/08/26 12:37:54;;;;;;;12.10;5.17;;;;;;;37.15;33.95;100221.19;3470660;82;99007;-83
2022/08/26 12:42:59;;;;;;;13.85;5.30;;;;;;;37.12;33.91;100210.82;3509908;82;26033;-84
2022/08/26 12:48:08;;;;;;;10.13;4.47;;;;;;;36.83;34.53;100212.91;3484628;83;98997;-83
2022/08/26 12:53:15;;;;;;;9.85;4.62;;;;;;;36.40;33.18;100209.13;3494790;84;25874;-83
2022/08/26 12:58:35;;;;;;;11.80;4.17;;;;;;;36.30;33.78;100197.41;3492253;82;98807;-83
2022/08/26 13:03:42;;;;;;;12.05;3.90;;;;;;;35.99;33.07;100191.91;3503124;82;26716;-84
2022/08/26 13:09:00;;;;;;;11.33;4.75;;;;;;;35.90;34.89;100180.27;3487098;82;98888;-84
2022/08/26 13:14:09;;;;;;;13.83;4.70;;;;;;;35.82;33.41;100180.09;3498422;82;26845;-82
2022/08/26 13:19:17;;;;;;;11.20;4.35;;;;;;;35.82;34.59;100170.84;3496436;82;98869;-84
2022/08/26 13:24:35;;;;;;;12.18;4.47;;;;;;;35.84;34.13;100171.05;3506477;82;26380;-82
2022/08/26 13:29:36;;;;;;;9.03;4.28;;;;;;;35.82;34.46;100163.69;3478989;82;98866;-83
2022/08/26 13:34:38;;;;;;;11.63;4.37;;;;;;;35.74;34.41;100164.94;3501610;82;26213;-82
2022/08/26 13:39:40;;;;;;;10.45;4.17;;;;;;;35.65;34.45;100151.05;3500946;83;98766;-83
2022/08/26 13:44:43;;;;;;;11.75;3.83;;;;;;;35.23;34.51;100144.45;3411445;84;25921;-83
2022/08/26 13:49:45;;;;;;;8.90;3.65;;;;;;;35.07;35.41;100142.73;3470119;83;98666;-83
2022/08/26 13:54:46;;;;;;;12.30;4.58;;;;;;;34.91;33.79;100136.70;3467816;83;26668;-84
2022/08/26 13:59:47;;;;;;;12.13;4.50;;;;;;;34.86;34.63;100132.54;3482992;83;98652;-85
2022/08/26 14:04:48;;;;;;;11.00;3.80;;;;;;;34.81;34.22;100129.89;3491908;83;26098;-84
2022/08/26 14:09:49;;;;;;;12.88;4.03;;;;;;;34.68;33.78;100126.23;3490093;83;98711;-84
2022/08/26 14:14:51;;;;;;;13.53;3.87;;;;;;;34.45;34.20;100123.72;3489086;82;26378;-84
2022/08/26 14:19:52;;;;;;;10.10;4.08;;;;;;;34.30;33.59;100121.40;3494025;84;98477;-85
2022/08/26 14:24:53;;;;;;;11.22;4.20;;;;;;;34.12;34.34;100115.09;3501058;83;26376;-85
2022/08/26 14:29:54;;;;;;;7.97;3.87;;;;;;;33.98;33.66;100112.08;3489860;82;98527;-86
2022/08/26 14:34:56;;;;;;;10.20;4.20;;;;;;;33.89;34.25;100119.63;3496019;83;32599;-84
2022/08/26 14:39:57;;;;;;;11.45;4.20;;;;;;;33.76;34.30;100121.64;3484225;82;98510;-86
2022/08/26 14:45:02;;;;;;;12.15;4.20;;;;;;;33.65;34.52;100119.75;3499406;83;25839;-85
2022/08/26 14:50:04;;;;;;;10.15;3.67;;;;;;;33.51;34.38;100118.83;3489281;83;98440;-85
2022/08/26 14:55:06;;;;;;;10.58;4.05;;;;;;;33.28;34.15;100104.11;3497761;82;44429;-84
2022/08/26 15:00:09;;;;;;;13.90;3.95;;;;;;;33.17;35.19;100099.97;3486702;83;98696;-83
2022/08/26 15:05:11;;;;;;;9.55;3.58;;;;;;;33.05;34.08;100099.23;3497793;82;26259;-85
2022/08/26 15:10:15;;;;;;;9.70;3.90;;;;;;;32.75;34.13;100101.44;3491466;83;98527;-85
2022/08/26 15:15:17;;;;;;;11.70;4.00;;;;;;;32.49;34.70;100091.25;3485972;83;25949;-84
2022/08/26 15:20:19;;;;;;;11.08;4.12;;;;;;;32.33;34.62;100087.94;3490095;82;98535;-84
2022/08/26 15:25:20;;;;;;;12.73;4.25;;;;;;;32.09;34.84;100082.22;3489427;82;30512;-85
2022/08/26 15:30:21;;;;;;;10.68;3.72;;;;;;;31.91;35.19;100090.80;3492088;82;98507;-85
2022/08/26 15:35:22;;;;;;;11.25;3.87;;;;;;;31.80;35.52;100080.16;3490880;82;35297;-84
2022/08/26 15:40:25;;;;;;;8.60;3.20;;;;;;;31.65;35.57;100079.09;3483005;82;98512;-84
2022/08/26 15:45:27;;;;;;;7.22;3.45;;;;;;;31.48;35.37;100079.09;3487872;82;58358;-85
2022/08/26 15:50:28;;;;;;;7.83;4.03;;;;;;;31.38;35.80;100084.34;3478017;83;98746;-86
2022/08/26 15:55:29;;;;;;;8.95;3.75;;;;;;;31.17;35.88;100068.19;3485647;82;26111;-85
2022/08/26 16:00:30;;;;;;;10.38;3.70;;;;;;;31.11;36.25;100083.84;3455799;82;98689;-85
2022/08/26 16:05:35;;;;;;;13.55;3.87;;;;;;;30.98;35.63;100088.58;3486112;82;31684;-85
2022/08/26 16:10:41;;;;;;;9.80;3.77;;;;;;;30.86;35.77;100082.83;3480098;82;99195;-86
2022/08/26 16:15:42;;;;;;;12.25;4.20;;;;;;;30.72;36.17;100088.97;3478928;82;26077;-86
2022/08/26 16:20:51;;;;;;;10.48;3.98;;;;;;;30.66;36.03;100084.59;3479088;83;98570;-86
2022/08/26 16:25:52;;;;;;;11.93;4.20;;;;;;;30.52;35.97;100083.58;3477346;84;56424;-85
2022/08/26 16:30:53;;;;;;;11.45;3.70;;;;;;;30.42;35.96;100085.20;3436022;83;98877;-86
2022/08/26 16:35:54;;;;;;;12.18;4.35;;;;;;;30.29;36.07;100076.44;3488807;83;69579;-87
2022/08/26 16:40:55;;;;;;;12.60;4.22;;;;;;;30.21;37.01;100073.23;3482290;82;98801;-86
2022/08/26 16:45:57;;;;;;;10.50;3.80;;;;;;;30.07;36.92;100067.19;3478770;82;98936;-82
2022/08/26 16:50:59;;;;;;;12.03;4.10;;;;;;;29.92;37.34;100068.87;3469219;84;45328;-86
2022/08/26 16:56:00;;;;;;;9.60;3.55;;;;;;;29.81;37.83;100070.95;3478710;82;99214;-87
2022/08/26 17:01:01;;;;;;;9.58;4.15;;;;;;;29.70;37.96;100075.22;3488859;82;31606;-86
2022/08/26 17:06:02;;;;;;;10.98;4.37;;;;;;;29.55;37.92;100075.48;3483515;82;98530;-86
2022/08/26 17:11:04;;;;;;;9.30;3.45;;;;;;;29.43;38.99;100076.72;3490355;82;42005;-86
2022/08/26 17:16:08;;;;;;;11.13;3.83;;;;;;;29.30;38.92;100071.42;3479755;82;98677;-87
2022/08/26 17:21:12;;;;;;;15.37;4.60;;;;;;;29.17;39.85;100073.98;3486166;83;26402;-87
2022/08/26 17:26:13;;;;;;;7.53;3.60;;;;;;;29.07;40.89;100074.87;3479272;82;99142;-87
2022/08/26 17:31:14;;;;;;;6.05;2.98;;;;;;;28.95;42.58;100075.33;3487546;83;31832;-86
2022/08/26 17:36:15;;;;;;;7.25;3.15;;;;;;;28.77;44.32;100080.80;3479610;82;98751;-86
2022/08/26 17:41:17;;;;;;;9.33;3.72;;;;;;;28.61;45.73;100076.50;3499304;83;31673;-87
2022/08/26 17:46:18;;;;;;;9.50;3.40;;;;;;;28.42;46.65;100072.54;3494207;82;98691;-87
2022/08/26 17:51:21;;;;;;;10.70;4.22;;;;;;;28.22;48.01;100076.27;3415199;83;31647;-87
2022/08/26 17:56:29;;;;;;;8.65;4.17;;;;;;;28.03;49.02;100074.34;3425559;83;99055;-87
2022/08/26 18:01:31;;;;;;;10.90;4.12;;;;;;;27.84;49.95;100068.96;3479999;83;31694;-87
2022/08/26 18:06:32;;;;;;;11.60;4.15;;;;;;;27.63;50.76;100071.06;3479620;82;148853;-87
2022/08/26 18:11:33;;;;;;;9.83;4.25;;;;;;;27.44;51.81;100075.55;3493724;82;31657;-87
2022/08/26 18:16:37;;;;;;;10.68;4.58;;;;;;;27.25;52.54;100066.50;3496035;82;98870;-87
2022/08/26 18:21:37;;;;;;;13.93;5.03;;;;;;;27.07;53.27;100071.80;3481262;82;25992;-88
2022/08/26 18:26:46;;;;;;;13.45;4.78;;;;;;;26.88;53.55;100081.09;3464429;83;98880;-88
2022/08/26 18:31:44;;;;;;;;;;;;;;;26.62;51.58;100079.64;3443687;83;47543;-87
2022/08/26 18:36:46;;;;;;;16.23;4.40;;;;;;;26.44;50.74;100090.41;3462659;83;84696;-88
2022/08/26 18:41:51;;;;;;;9.65;3.95;;;;;;;26.25;50.54;100087.07;3489931;83;26441;-88
2022/08/26 18:46:53;;;;;;;9.93;4.75;;;;;;;26.14;51.35;100093.17;3461666;82;98418;-87
2022/08/26 18:51:55;;;;;;;15.48;4.60;;;;;;;26.03;51.42;100093.02;3486708;82;26513;-87
2022/08/26 18:56:56;;;;;;;11.88;4.58;;;;;;;25.91;51.61;100099.13;3489297;82;99099;-88
2022/08/26 19:01:58;;;;;;;15.38;5.05;;;;;;;25.81;51.63;100096.25;3487305;82;32250;-86
2022/08/26 19:06:59;;;;;;;14.47;4.80;;;;;;;25.70;51.86;100096.69;3489722;82;98935;-88
2022/08/26 19:12:01;;;;;;;8.88;4.47;;;;;;;25.61;51.91;100092.59;3491396;82;32103;-88
2022/08/26 19:17:03;;;;;;;11.53;4.72;;;;;;;25.54;51.54;100098.59;3482845;82;98939;-87
2022/08/26 19:22:06;;;;;;;14.98;4.75;;;;;;;25.42;51.62;100096.86;3502024;83;31781;-88
2022/08/26 19:27:07;;;;;;;10.70;4.35;;;;;;;25.36;51.76;100100.21;3490156;83;98893;-87
2022/08/26 19:32:08;;;;;;;8.88;4.10;;;;;;;25.27;51.97;100103.11;3492100;84;31657;-88
2022/08/26 19:37:10;;;;;;;14.28;4.90;;;;;;;25.20;52.44;100101.45;3472294;82;98658;-89
2022/08/26 19:42:11;;;;;;;12.20;4.40;;;;;;;25.13;52.85;100103.86;3495295;83;32429;-87
2022/08/26 19:47:13;;;;;;;9.48;4.10;;;;;;;25.05;53.38;100112.52;3473554;83;99765;-87
2022/08/26 19:52:15;;;;;;;14.47;5.53;;;;;;;24.97;53.81;100112.15;3480444;83;28040;-88
2022/08/26 19:57:16;;;;;;;10.10;4.45;;;;;;;24.90;54.13;100111.73;3481762;82;98905;-87
2022/08/26 20:02:17;;;;;;;9.93;5.15;;;;;;;24.84;54.86;100116.48;3496268;82;31677;-87
2022/08/26 20:07:19;;;;;;;13.30;4.75;;;;;;;24.78;55.61;100116.97;3477915;82;98747;-87
2022/08/26 20:12:20;;;;;;;9.43;4.60;;;;;;;24.70;55.63;100109.55;3495812;83;31733;-88
2022/08/26 20:17:21;;;;;;;12.60;5.15;;;;;;;24.63;56.32;100112.70;3480707;83;98838;-87
2022/08/26 20:22:23;;;;;;;12.90;6.08;;;;;;;24.53;56.34;100125.25;3493412;82;31715;-88
2022/08/26 20:27:28;;;;;;;10.05;4.87;;;;;;;24.47;57.15;100124.36;3466780;82;98729;-88
2022/08/26 20:32:29;;;;;;;10.40;5.17;;;;;;;24.40;57.63;100129.55;3494505;82;88290;-88
2022/08/26 20:37:31;;;;;;;9.25;5.30;;;;;;;24.30;57.73;100124.62;3462956;82;113600;-88
2022/08/26 20:42:32;;;;;;;13.93;5.87;;;;;;;24.23;57.55;100127.00;3485122;82;42231;-88
2022/08/26 20:47:33;;;;;;;14.18;6.22;;;;;;;24.16;57.93;100131.58;3450931;84;98858;-88
2022/08/26 20:52:34;;;;;;;13.35;5.45;;;;;;;24.07;58.21;100130.20;3458106;83;31667;-88
2022/08/26 20:57:36;;;;;;;10.68;5.87;;;;;;;24.01;58.53;100128.68;3473316;83;98785;-88
2022/08/26 21:02:37;;;;;;;15.40;6.20;;;;;;;23.96;58.79;100132.14;3510226;83;32254;-88
2022/08/26 21:07:38;;;;;;;12.07;5.33;;;;;;;23.90;59.10;100124.20;3509210;82;98959;-88
2022/08/26 21:12:39;;;;;;;12.43;6.12;;;;;;;23.84;59.16;100120.45;3507049;83;31638;-87
2022/08/26 21:17:43;;;;;;;15.60;6.65;;;;;;;23.76;59.49;100119.21;3499364;82;98850;-88
2022/08/26 21:22:44;;;;;;;16.55;6.08;;;;;;;23.73;60.08;100121.58;3512921;83;62624;-88
2022/08/26 21:27:45;;;;;;;12.88;5.87;;;;;;;23.68;60.16;100115.81;3495156;82;98709;-89
2022/08/26 21:32:46;;;;;;;10.25;5.42;;;;;;;23.64;60.51;100106.14;3495392;83;62785;-88
2022/08/26 21:37:48;;;;;;;12.85;6.30;;;;;;;23.58;60.37;100096.80;3497956;83;99037;-88
2022/08/26 21:42:50;;;;;;;15.30;6.42;;;;;;;23.53;60.58;100092.44;3487952;83;92325;-89
2022/08/26 21:47:51;;;;;;;11.85;5.58;;;;;;;23.48;61.02;100097.31;3436755;84;99250;-89
2022/08/26 21:52:53;;;;;;;13.50;5.85;;;;;;;23.44;61.46;100089.03;3428411;83;31868;-88
2022/08/26 21:57:54;;;;;;;12.03;6.35;;;;;;;23.42;62.19;100095.76;3489656;83;99592;-88
2022/08/26 22:02:56;;;;;;;15.30;6.60;;;;;;;23.39;62.76;100095.31;3485498;82;31774;-88
2022/08/26 22:07:57;;;;;;;13.83;6.22;;;;;;;23.39;63.48;100098.73;3478627;83;98965;-88
2022/08/26 22:12:58;;;;;;;11.25;5.87;;;;;;;23.36;63.72;100092.64;3490476;81;33188;-88
2022/08/26 22:18:02;;;;;;;12.45;6.78;;;;;;;23.32;64.38;100094.21;3481402;82;99037;-88
2022/08/26 22:23:02;;;;;;;11.97;6.75;;;;;;;23.25;64.01;100080.51;3485073;82;65329;-88
2022/08/26 22:28:04;;;;;;;12.82;6.53;;;;;;;23.19;64.07;100076.78;3480003;83;99237;-88
2022/08/26 22:33:05;;;;;;;11.35;6.15;;;;;;;23.08;63.71;100070.05;3491415;83;25847;-87
2022/08/26 22:38:07;;;;;;;15.40;6.33;;;;;;;23.01;64.31;100073.19;3452883;83;98954;-88
2022/08/26 22:43:08;;;;;;;12.00;6.90;;;;;;;22.82;63.82;100047.78;3452564;84;32414;-87
2022/08/26 22:48:14;;;;;;;15.03;5.72;;;;;;;22.85;64.13;100058.08;3446205;83;98966;-88
2022/08/26 22:53:17;;;;;;;13.05;6.53;;;;;;;22.79;64.36;100055.75;3446432;83;26410;-88
2022/08/26 22:58:18;;;;;;;16.05;6.83;;;;;;;22.73;64.89;100063.23;3449011;84;99145;-89
2022/08/26 23:03:19;;;;;;;13.55;7.42;;;;;;;22.69;65.17;100066.20;3447713;84;25874;-88
2022/08/26 23:08:22;;;;;;;13.22;6.53;;;;;;;22.68;66.13;100060.41;3452781;83;99077;-88